createdAt,value
2022-08-20T00:04:50.838Z,5.90
2022-08-20T00:09:53.782Z,6.80
2022-08-20T00:14:56.797Z,6.50
2022-08-20T00:19:59.801Z,7.00
2022-08-20T00:25:06.306Z,7.50
2022-08-20T00:30:12.224Z,6.80
2022-08-20T00:35:20.285Z,7.80
2022-08-20T00:40:28.226Z,7.60
2022-08-20T00:45:32.883Z,9.00
2022-08-20T00:50:38.484Z,7.10
2022-08-20T00:55:42.861Z,7.90
2022-08-20T01:00:48.196Z,8.30
2022-08-20T01:05:52.163Z,8.50
2022-08-20T01:11:10.718Z,8.60
2022-08-20T01:16:22.223Z,7.80
2022-08-20T01:21:33.934Z,8.30
2022-08-20T01:26:43.993Z,8.20
2022-08-20T01:36:54.217Z,8.60
2022-08-20T01:42:07.261Z,8.20
2022-08-20T01:47:13.036Z,9.00
2022-08-20T01:52:45.428Z,8.00
2022-08-20T01:57:48.722Z,7.70
2022-08-20T02:02:52.149Z,7.40
2022-08-20T02:07:55.671Z,7.70
2022-08-20T02:13:00.089Z,8.60
2022-08-20T02:18:08.511Z,7.60
2022-08-20T02:23:12.320Z,7.30
2022-08-20T02:28:20.808Z,8.60
2022-08-20T02:33:24.612Z,7.80
2022-08-20T02:38:27.768Z,7.90
2022-08-20T02:43:32.395Z,7.60
2022-08-20T02:48:35.599Z,7.60
2022-08-20T02:53:42.042Z,8.00
2022-08-20T02:58:45.919Z,8.60
2022-08-20T03:03:48.919Z,8.30
2022-08-20T03:08:52.133Z,8.30
2022-08-20T03:13:55.136Z,8.40
2022-08-20T03:19:00.498Z,8.20
2022-08-20T03:24:03.780Z,7.40
2022-08-20T03:29:07.025Z,7.00
2022-08-20T03:34:10.031Z,7.30
2022-08-20T03:39:13.753Z,8.20
2022-08-20T03:44:16.761Z,7.10
2022-08-20T03:49:20.079Z,8.80
2022-08-20T03:54:22.976Z,7.90
2022-08-20T03:59:25.984Z,8.20
2022-08-20T04:04:28.994Z,7.60
2022-08-20T04:09:31.925Z,8.20
2022-08-20T04:14:38.178Z,8.30
2022-08-20T04:19:42.514Z,8.40
2022-08-20T04:24:45.726Z,9.00
2022-08-20T04:29:48.738Z,7.50
2022-08-20T04:34:52.415Z,8.20
2022-08-20T04:40:14.121Z,9.70
2022-08-20T04:45:17.848Z,9.30
2022-08-20T04:50:21.368Z,9.10
2022-08-20T04:55:24.386Z,9.30
2022-08-20T05:00:27.458Z,9.90
2022-08-20T05:05:31.182Z,9.60
2022-08-20T05:10:35.006Z,9.10
2022-08-20T05:15:39.174Z,8.60
2022-08-20T05:20:42.609Z,9.20
2022-08-20T05:25:48.468Z,9.40
2022-08-20T05:30:53.997Z,8.60
2022-08-20T05:35:58.954Z,8.80
2022-08-20T05:41:02.767Z,8.40
2022-08-20T05:46:05.880Z,9.10
2022-08-20T05:51:12.103Z,8.10
2022-08-20T05:56:17.732Z,7.20
2022-08-20T06:01:20.960Z,7.60
2022-08-20T06:06:39.031Z,7.30
2022-08-20T06:11:47.438Z,7.10
2022-08-20T06:16:57.364Z,6.90
2022-08-20T06:22:03.453Z,7.40
2022-08-20T06:27:21.357Z,7.20
2022-08-20T06:32:32.465Z,7.30
2022-08-20T06:37:39.590Z,7.20
2022-08-20T06:42:48.063Z,6.70
2022-08-20T06:47:53.425Z,6.40
2022-08-20T06:52:57.508Z,6.90
2022-08-20T06:58:03.853Z,6.80
2022-08-20T07:03:07.272Z,6.00
2022-08-20T07:08:12.022Z,6.20
2022-08-20T07:13:16.761Z,6.50
2022-08-20T07:18:28.686Z,5.30
2022-08-20T07:23:32.094Z,5.80
2022-08-20T07:28:35.100Z,7.00
2022-08-20T07:33:40.373Z,5.70
2022-08-20T07:38:47.221Z,5.80
2022-08-20T07:43:50.168Z,6.10
2022-08-20T07:48:53.184Z,6.20
2022-08-20T07:53:58.444Z,6.20
2022-08-20T07:59:01.845Z,6.50
2022-08-20T08:04:05.162Z,6.80
2022-08-20T08:09:11.785Z,7.20
2022-08-20T08:14:19.790Z,7.20
2022-08-20T08:19:23.603Z,6.60
2022-08-20T08:24:28.611Z,7.00
2022-08-20T08:29:31.766Z,6.70
2022-08-20T08:34:37.431Z,6.40
2022-08-20T08:39:40.502Z,6.70
2022-08-20T08:44:44.973Z,5.90
2022-08-20T08:49:48.640Z,6.70
2022-08-20T08:54:58.560Z,7.20
2022-08-20T09:00:10.336Z,6.10
2022-08-20T09:05:17.019Z,6.10
2022-08-20T09:10:22.912Z,6.40
2022-08-20T09:15:27.698Z,6.70
2022-08-20T09:20:31.420Z,6.70
2022-08-20T09:25:34.838Z,6.20
2022-08-20T09:30:37.945Z,6.00
2022-08-20T09:35:41.568Z,6.30
2022-08-20T09:40:47.646Z,6.80
2022-08-20T09:45:50.956Z,6.20
2022-08-20T09:50:54.275Z,6.20
2022-08-20T09:55:58.910Z,6.30
2022-08-20T10:01:15.191Z,6.70
2022-08-20T10:06:22.644Z,6.20
2022-08-20T10:11:25.654Z,6.10
2022-08-20T10:16:30.296Z,6.70
2022-08-20T10:21:38.884Z,6.70
2022-08-20T10:26:42.584Z,6.10
2022-08-20T10:31:45.561Z,5.80
2022-08-20T10:36:48.577Z,6.10
2022-08-20T10:41:51.608Z,6.00
2022-08-20T10:46:57.195Z,6.00
2022-08-20T10:52:00.771Z,6.10
2022-08-20T10:57:05.007Z,6.00
2022-08-20T11:02:08.783Z,6.20
2022-08-20T11:07:21.919Z,6.20
2022-08-20T11:12:46.365Z,6.40
2022-08-20T11:17:50.093Z,6.90
2022-08-20T11:22:54.693Z,6.50
2022-08-20T11:27:59.025Z,6.70
2022-08-20T11:33:03.035Z,6.10
2022-08-20T11:38:06.180Z,5.90
2022-08-20T11:43:14.589Z,6.20
2022-08-20T11:48:18.843Z,6.40
2022-08-20T11:53:22.314Z,6.60
2022-08-20T11:58:25.538Z,6.80
2022-08-20T12:03:28.833Z,6.90
2022-08-20T12:08:31.837Z,6.70
2022-08-20T12:13:48.554Z,6.90
2022-08-20T12:18:52.816Z,6.80
2022-08-20T12:23:55.739Z,6.30
2022-08-20T12:28:59.332Z,6.50
2022-08-20T12:34:02.335Z,6.20
2022-08-20T12:39:05.339Z,6.30
2022-08-20T12:44:10.636Z,6.30
2022-08-20T12:49:16.890Z,7.00
2022-08-20T12:54:19.888Z,7.00
2022-08-20T12:59:26.052Z,6.60
2022-08-20T13:04:30.925Z,6.60
2022-08-20T13:09:34.381Z,7.70
2022-08-20T13:14:38.815Z,7.70
2022-08-20T13:19:41.786Z,7.00
2022-08-20T13:24:44.994Z,6.90
2022-08-20T13:29:58.359Z,7.50
2022-08-20T13:35:02.318Z,6.30
2022-08-20T13:40:08.164Z,7.10
2022-08-20T13:45:14.227Z,7.30
2022-08-20T13:50:20.425Z,8.00
2022-08-20T13:55:25.700Z,8.10
2022-08-20T14:00:32.582Z,7.20
2022-08-20T14:05:36.110Z,6.70
2022-08-20T14:10:42.708Z,7.60
2022-08-20T14:15:46.217Z,7.70
2022-08-20T14:20:49.740Z,8.50
2022-08-20T14:25:52.818Z,7.90
2022-08-20T14:30:55.832Z,7.20
2022-08-20T14:35:59.068Z,8.40
2022-08-20T14:41:02.347Z,8.10
2022-08-20T14:46:05.498Z,7.70
2022-08-20T14:51:10.454Z,7.70
2022-08-20T14:56:13.618Z,6.90
2022-08-20T15:01:16.791Z,6.80
2022-08-20T15:06:21.989Z,7.20
2022-08-20T15:11:32.425Z,6.10
2022-08-20T15:16:37.529Z,5.30
2022-08-20T15:21:45.097Z,5.50
2022-08-20T15:26:48.964Z,6.00
2022-08-20T15:31:51.973Z,5.50
2022-08-20T15:36:57.648Z,5.50
2022-08-20T15:42:00.652Z,5.30
2022-08-20T15:47:34.470Z,6.70
2022-08-20T15:52:42.213Z,5.40
2022-08-20T15:58:06.399Z,5.90
2022-08-20T16:03:18.724Z,5.70
2022-08-20T16:08:49.627Z,7.80
2022-08-20T16:14:03.235Z,7.00
2022-08-20T16:19:16.905Z,7.00
2022-08-20T16:24:21.222Z,17.10
2022-08-20T16:29:49.327Z,8.20
2022-08-20T16:35:00.670Z,7.90
2022-08-20T16:40:22.720Z,9.20
2022-08-20T16:45:45.652Z,8.10
2022-08-20T16:51:01.337Z,7.60
2022-08-20T17:01:15.100Z,7.30
2022-08-20T17:06:37.821Z,7.10
2022-08-20T17:11:42.879Z,8.60
2022-08-20T17:16:52.668Z,7.90
2022-08-20T17:21:57.367Z,7.90
2022-08-20T17:27:10.868Z,7.20
2022-08-20T17:32:26.964Z,7.80
2022-08-20T17:37:39.792Z,7.90
2022-08-20T17:43:01.656Z,7.70
2022-08-20T17:48:13.758Z,7.60
2022-08-20T17:53:24.480Z,7.80
2022-08-20T17:58:54.897Z,8.00
2022-08-20T18:03:59.335Z,8.30
2022-08-20T18:09:11.666Z,8.90
2022-08-20T18:14:52.366Z,8.40
2022-08-20T18:20:13.803Z,9.80
2022-08-20T18:25:27.245Z,10.00
2022-08-20T18:30:33.264Z,11.70
2022-08-20T18:35:36.223Z,11.00
2022-08-20T18:40:40.467Z,9.90
2022-08-20T18:45:43.566Z,8.80
2022-08-20T18:50:50.874Z,9.10
2022-08-20T18:56:07.124Z,10.10
2022-08-20T19:01:13.713Z,8.00
2022-08-20T19:06:33.788Z,8.40
2022-08-20T19:11:55.332Z,8.30
2022-08-20T19:17:15.572Z,8.00
2022-08-20T19:22:28.259Z,8.10
2022-08-20T19:27:32.355Z,8.90
2022-08-20T19:32:35.346Z,8.00
2022-08-20T19:37:51.183Z,8.60
2022-08-20T19:42:56.457Z,7.90
2022-08-20T19:48:13.211Z,8.40
2022-08-20T19:53:30.761Z,8.70
2022-08-20T19:58:34.834Z,8.20
2022-08-20T20:03:38.773Z,8.90
2022-08-20T20:09:13.365Z,10.00
2022-08-20T20:14:18.784Z,9.20
2022-08-20T20:19:26.786Z,9.70
2022-08-20T20:24:42.456Z,10.00
2022-08-20T20:29:45.666Z,10.00
2022-08-20T20:34:58.502Z,11.70
2022-08-20T20:40:13.016Z,8.30
2022-08-20T20:45:44.667Z,7.00
